createdAt,value
2018-09-17T00:01:37.389Z,11.12
2018-09-17T00:04:05.664Z,7.42
2018-09-17T00:06:33.986Z,7.65
2018-09-17T00:09:02.265Z,13.18
2018-09-17T00:11:30.498Z,8.05
2018-09-17T00:13:58.821Z,8.00
2018-09-17T00:16:27.098Z,10.68
2018-09-17T00:18:55.378Z,8.48
2018-09-17T00:21:23.649Z,8.88
2018-09-17T00:23:51.870Z,9.05
2018-09-17T00:26:20.194Z,12.70
2018-09-17T00:28:48.633Z,9.83
2018-09-17T00:31:16.925Z,9.27
2018-09-17T00:33:45.134Z,7.47
2018-09-17T00:36:13.380Z,8.30
2018-09-17T00:38:41.689Z,9.88
2018-09-17T00:41:09.954Z,8.28
2018-09-17T00:43:38.338Z,8.45
2018-09-17T00:46:06.585Z,9.18
2018-09-17T00:48:34.862Z,8.45
2018-09-17T00:51:03.258Z,7.50
2018-09-17T00:53:31.513Z,8.35
2018-09-17T00:55:59.825Z,8.70
2018-09-17T00:58:28.116Z,7.95
2018-09-17T01:00:56.394Z,7.05
2018-09-17T01:03:24.690Z,7.35
2018-09-17T01:05:52.955Z,7.97
2018-09-17T01:08:21.189Z,9.63
2018-09-17T01:10:49.585Z,10.65
2018-09-17T01:13:17.823Z,10.47
2018-09-17T01:15:46.172Z,11.60
2018-09-17T01:18:14.473Z,7.15
2018-09-17T01:20:42.749Z,7.80
2018-09-17T01:23:10.965Z,9.50
2018-09-17T01:25:39.294Z,9.18
2018-09-17T01:28:07.578Z,7.30
2018-09-17T01:30:36.008Z,6.37
2018-09-17T01:33:04.180Z,5.80
2018-09-17T01:35:32.509Z,9.28
2018-09-17T01:38:00.834Z,6.30
2018-09-17T01:40:29.143Z,7.20
2018-09-17T01:42:57.386Z,6.40
2018-09-17T01:45:25.612Z,12.88
2018-09-17T01:47:53.874Z,7.67
2018-09-17T01:50:22.132Z,6.47
2018-09-17T01:52:50.442Z,6.47
2018-09-17T01:55:18.666Z,5.47
2018-09-17T01:57:46.888Z,7.58
2018-09-17T02:00:15.143Z,7.40
2018-09-17T02:02:43.410Z,7.03
2018-09-17T02:05:11.641Z,5.65
2018-09-17T02:07:39.852Z,5.50
2018-09-17T02:10:08.064Z,6.17
2018-09-17T02:12:36.295Z,5.53
2018-09-17T02:15:04.537Z,5.45
2018-09-17T02:17:32.777Z,7.53
2018-09-17T02:20:01.068Z,5.50
2018-09-17T02:22:29.281Z,6.12
2018-09-17T02:24:57.557Z,5.72
2018-09-17T02:27:25.818Z,4.92
2018-09-17T02:29:54.158Z,5.10
2018-09-17T02:32:22.398Z,5.83
2018-09-17T02:34:50.777Z,6.35
2018-09-17T02:37:19.018Z,5.17
2018-09-17T02:39:47.241Z,5.30
2018-09-17T02:42:15.473Z,5.35
2018-09-17T02:44:43.807Z,7.45
2018-09-17T02:47:12.030Z,5.87
2018-09-17T02:49:40.364Z,8.70
2018-09-17T02:52:08.583Z,6.10
2018-09-17T02:54:36.868Z,5.00
2018-09-17T02:57:05.486Z,6.60
2018-09-17T02:59:34.548Z,7.55
2018-09-17T03:02:02.858Z,7.95
2018-09-17T03:04:31.134Z,7.20
2018-09-17T03:06:59.342Z,5.78
2018-09-17T03:09:27.631Z,12.73
2018-09-17T03:11:55.856Z,6.22
2018-09-17T03:14:28.230Z,5.60
2018-09-17T03:17:12.757Z,5.47
2018-09-17T03:19:42.141Z,7.05
2018-09-17T03:22:10.730Z,6.17
2018-09-17T03:24:39.151Z,6.85
2018-09-17T03:27:07.812Z,6.40
2018-09-17T03:29:36.165Z,8.30
2018-09-17T03:32:04.693Z,5.97
2018-09-17T03:34:32.926Z,6.87
2018-09-17T03:37:01.366Z,7.70
2018-09-17T03:39:29.604Z,7.50
2018-09-17T03:41:57.827Z,8.60
2018-09-17T03:44:26.125Z,7.83
2018-09-17T03:46:54.416Z,10.38
2018-09-17T03:49:22.630Z,8.18
2018-09-17T03:51:50.854Z,8.13
2018-09-17T03:54:19.136Z,7.60
2018-09-17T03:56:47.353Z,9.83
2018-09-17T03:59:15.579Z,8.20
2018-09-17T04:01:43.787Z,7.83
2018-09-17T04:04:12.027Z,10.40
2018-09-17T04:06:40.322Z,12.78
2018-09-17T04:09:08.821Z,7.95
2018-09-17T04:11:37.093Z,10.63
2018-09-17T04:14:05.792Z,9.38
2018-09-17T04:16:34.016Z,8.83
2018-09-17T04:19:02.253Z,9.98
2018-09-17T04:21:30.517Z,8.45
2018-09-17T04:23:58.758Z,11.40
2018-09-17T04:26:27.066Z,10.30
2018-09-17T04:28:55.297Z,9.00
2018-09-17T04:31:23.530Z,10.08
2018-09-17T04:33:51.741Z,9.40
2018-09-17T04:36:20.029Z,11.30
2018-09-17T04:38:48.354Z,9.00
2018-09-17T04:41:16.641Z,9.33
2018-09-17T04:43:44.861Z,9.75
2018-09-17T04:46:13.138Z,9.35
2018-09-17T04:48:41.410Z,10.75
2018-09-17T04:51:09.756Z,12.75
2018-09-17T04:53:37.977Z,9.80
2018-09-17T04:56:06.217Z,10.45
2018-09-17T04:58:34.539Z,9.30
2018-09-17T05:01:03.034Z,9.13
2018-09-17T05:03:31.300Z,11.18
2018-09-17T05:05:59.528Z,9.63
2018-09-17T05:08:27.806Z,9.65
2018-09-17T05:10:56.033Z,8.70
2018-09-17T05:13:24.428Z,9.23
2018-09-17T05:15:52.581Z,12.37
2018-09-17T05:18:20.894Z,9.35
2018-09-17T05:20:49.313Z,10.03
2018-09-17T05:23:17.540Z,12.07
2018-09-17T05:25:46.610Z,10.05
2018-09-17T05:28:14.943Z,8.93
2018-09-17T05:30:43.395Z,9.93
2018-09-17T05:33:14.251Z,9.23
2018-09-17T05:35:42.486Z,10.10
2018-09-17T05:38:11.083Z,9.63
2018-09-17T05:40:39.379Z,12.63
2018-09-17T05:43:07.651Z,9.10
2018-09-17T05:45:35.984Z,10.85
2018-09-17T05:48:04.312Z,8.75
2018-09-17T05:50:32.602Z,7.45
2018-09-17T05:53:01.022Z,11.15
2018-09-17T05:55:29.339Z,8.33
2018-09-17T05:57:57.574Z,11.12
2018-09-17T06:00:26.001Z,8.75
2018-09-17T06:02:54.281Z,9.80
2018-09-17T06:05:22.569Z,11.00
2018-09-17T06:07:50.881Z,9.55
2018-09-17T06:10:19.246Z,9.30
2018-09-17T06:12:48.409Z,9.28
2018-09-17T06:15:16.970Z,13.88
2018-09-17T06:17:45.674Z,15.18
2018-09-17T06:20:14.059Z,13.10
2018-09-17T06:22:42.308Z,9.50
2018-09-17T06:25:10.567Z,9.80
2018-09-17T06:27:38.806Z,12.05
2018-09-17T06:30:08.127Z,9.90
2018-09-17T06:32:36.467Z,10.30
2018-09-17T06:35:04.762Z,9.18
2018-09-17T06:37:33.020Z,11.73
2018-09-17T06:40:01.262Z,10.35
2018-09-17T06:42:29.918Z,12.47
2018-09-17T06:44:58.254Z,10.03
2018-09-17T06:47:26.441Z,14.55
2018-09-17T06:49:54.687Z,11.40
2018-09-17T06:52:22.943Z,10.67
2018-09-17T06:54:51.180Z,10.40
2018-09-17T06:57:19.490Z,17.57
2018-09-17T06:59:47.824Z,13.47
2018-09-17T07:02:16.121Z,12.00
2018-09-17T07:04:44.553Z,10.87
2018-09-17T07:07:12.850Z,10.17
2018-09-17T07:09:41.142Z,14.70
2018-09-17T07:12:09.470Z,13.23
2018-09-17T07:14:37.839Z,14.10
2018-09-17T07:17:06.179Z,10.10
2018-09-17T07:19:34.481Z,10.43
2018-09-17T07:22:02.697Z,10.30
2018-09-17T07:24:30.980Z,12.30
2018-09-17T07:26:59.417Z,12.13
2018-09-17T07:29:27.654Z,9.97
2018-09-17T07:31:55.914Z,10.70
2018-09-17T07:34:24.158Z,10.20
2018-09-17T07:36:52.446Z,12.17
2018-09-17T07:39:20.778Z,11.43
2018-09-17T07:41:49.091Z,11.17
2018-09-17T07:44:17.414Z,11.43
2018-09-17T07:46:45.626Z,10.70
2018-09-17T07:49:13.840Z,9.60
2018-09-17T07:51:42.045Z,11.80
2018-09-17T07:54:10.394Z,10.47
2018-09-17T07:56:38.608Z,11.90
2018-09-17T07:59:06.855Z,9.37
2018-09-17T08:01:35.201Z,10.50
2018-09-17T08:04:03.498Z,10.27
2018-09-17T08:06:31.778Z,10.60
2018-09-17T08:09:00.058Z,10.50
2018-09-17T08:11:28.372Z,11.90
2018-09-17T08:13:56.589Z,12.13
2018-09-17T08:16:24.865Z,14.33
2018-09-17T08:18:53.174Z,11.20
2018-09-17T08:21:21.490Z,14.40
2018-09-17T08:23:49.681Z,10.83
2018-09-17T08:26:17.957Z,14.27
2018-09-17T08:28:46.214Z,12.27
2018-09-17T08:31:14.527Z,12.87
2018-09-17T08:33:42.877Z,12.30
2018-09-17T08:36:11.094Z,13.60
2018-09-17T08:38:39.574Z,13.80
2018-09-17T08:41:08.125Z,15.80
2018-09-17T08:43:36.417Z,10.10
2018-09-17T08:46:04.888Z,12.03
2018-09-17T08:48:33.145Z,13.03
2018-09-17T08:51:01.370Z,10.00
2018-09-17T08:53:29.605Z,9.77
2018-09-17T08:55:59.694Z,9.53
2018-09-17T08:59:33.012Z,9.90
2018-09-17T09:02:06.486Z,9.33
2018-09-17T09:04:40.198Z,8.80
2018-09-17T09:07:15.391Z,8.90
2018-09-17T09:09:43.857Z,7.90
2018-09-17T09:12:17.562Z,8.20
2018-09-17T09:14:45.998Z,9.37
2018-09-17T09:17:14.459Z,9.10
2018-09-17T09:19:42.882Z,8.23
2018-09-17T09:22:11.171Z,11.30
2018-09-17T09:24:39.426Z,10.23
2018-09-17T09:27:07.795Z,7.43
2018-09-17T09:29:36.158Z,8.53
2018-09-17T09:32:04.410Z,8.60
2018-09-17T09:34:32.714Z,6.63
2018-09-17T09:37:01.000Z,9.07
2018-09-17T09:39:29.296Z,6.80
2018-09-17T09:41:57.577Z,7.50
2018-09-17T09:44:25.913Z,6.43
2018-09-17T09:46:54.254Z,8.73
2018-09-17T09:49:22.503Z,6.43
2018-09-17T09:51:50.782Z,8.53
2018-09-17T09:54:19.012Z,9.70
2018-09-17T09:56:47.223Z,5.93
2018-09-17T09:59:15.465Z,8.67
2018-09-17T10:01:49.240Z,6.07
2018-09-17T10:04:23.468Z,9.30
2018-09-17T10:06:52.666Z,8.10
2018-09-17T10:09:26.090Z,7.57
2018-09-17T10:11:59.744Z,7.53
2018-09-17T10:14:33.388Z,5.73
2018-09-17T10:17:07.073Z,5.87
2018-09-17T10:19:36.134Z,6.43
2018-09-17T10:22:04.547Z,6.27
2018-09-17T10:24:32.769Z,4.97
2018-09-17T10:27:01.119Z,4.77
2018-09-17T10:29:29.402Z,5.00
2018-09-17T10:31:58.393Z,4.27
2018-09-17T10:34:26.735Z,5.50
2018-09-17T10:36:55.259Z,3.33
2018-09-17T10:39:23.674Z,4.43
2018-09-17T10:41:51.942Z,5.50
2018-09-17T10:44:20.895Z,4.93
2018-09-17T10:46:49.190Z,3.70
2018-09-17T10:49:17.503Z,3.93
2018-09-17T10:51:45.734Z,3.50
2018-09-17T10:54:14.049Z,4.90
2018-09-17T10:56:42.254Z,7.70
2018-09-17T10:59:10.499Z,4.60
2018-09-17T11:01:38.722Z,3.63
2018-09-17T11:04:06.997Z,4.27
2018-09-17T11:06:35.232Z,4.17
2018-09-17T11:09:03.531Z,5.33
2018-09-17T11:11:31.834Z,3.40
2018-09-17T11:14:00.085Z,3.87
2018-09-17T11:16:28.386Z,5.57
2018-09-17T11:18:56.682Z,2.83
2018-09-17T11:21:24.938Z,2.93
2018-09-17T11:23:53.287Z,4.27
2018-09-17T11:26:21.546Z,3.27
2018-09-17T11:28:49.922Z,2.37
2018-09-17T11:31:18.505Z,2.60
2018-09-17T11:33:46.953Z,4.03
2018-09-17T11:36:15.159Z,3.23
2018-09-17T11:38:43.626Z,4.13
2018-09-17T11:41:11.885Z,5.27
2018-09-17T11:43:40.103Z,6.47
2018-09-17T11:46:08.386Z,2.63
2018-09-17T11:48:36.642Z,2.63
2018-09-17T11:51:04.990Z,4.40
2018-09-17T11:53:33.297Z,2.47
2018-09-17T11:56:01.485Z,2.30
2018-09-17T11:58:29.749Z,2.20
2018-09-17T12:01:03.280Z,2.80
2018-09-17T12:03:37.042Z,2.80
2018-09-17T12:06:05.544Z,2.20
2018-09-17T12:08:34.260Z,2.60
2018-09-17T12:11:02.623Z,3.57
2018-09-17T12:13:30.898Z,4.10
2018-09-17T12:15:59.193Z,7.63
2018-09-17T12:18:27.463Z,6.60
2018-09-17T12:20:55.689Z,2.07
2018-09-17T12:23:23.966Z,2.10
2018-09-17T12:25:52.332Z,1.93
2018-09-17T12:28:20.566Z,3.00
2018-09-17T12:30:48.778Z,1.53
2018-09-17T12:33:16.998Z,2.97
2018-09-17T12:35:45.242Z,2.80
2018-09-17T12:38:13.494Z,3.13
2018-09-17T12:40:41.780Z,2.47
2018-09-17T12:43:09.994Z,2.90
2018-09-17T12:45:38.265Z,3.30
2018-09-17T12:48:06.593Z,2.33
2018-09-17T12:50:34.823Z,2.20
2018-09-17T12:53:03.061Z,2.70
2018-09-17T12:55:31.282Z,2.00
2018-09-17T12:57:59.531Z,2.50
2018-09-17T13:00:27.802Z,2.93
2018-09-17T13:02:56.026Z,2.00
2018-09-17T13:05:24.246Z,2.23
2018-09-17T13:07:52.517Z,3.80
2018-09-17T13:10:20.793Z,1.87
2018-09-17T13:12:49.002Z,1.97
2018-09-17T13:15:17.294Z,2.97
2018-09-17T13:17:45.494Z,2.93
2018-09-17T13:20:13.736Z,2.70
2018-09-17T13:22:41.970Z,2.03
2018-09-17T13:25:10.230Z,2.00
2018-09-17T13:27:38.469Z,3.17
2018-09-17T13:30:07.038Z,2.60
2018-09-17T13:32:35.294Z,2.60
2018-09-17T13:35:03.566Z,2.43
2018-09-17T13:37:31.831Z,2.00
2018-09-17T13:40:00.043Z,1.87
2018-09-17T13:42:28.417Z,2.03
2018-09-17T13:44:56.705Z,2.90
2018-09-17T13:47:25.058Z,2.33
2018-09-17T13:49:53.455Z,2.23
2018-09-17T13:52:21.693Z,2.80
2018-09-17T13:54:49.991Z,3.33
2018-09-17T13:57:18.321Z,2.17
2018-09-17T13:59:46.643Z,3.70
2018-09-17T14:02:14.888Z,3.20
2018-09-17T14:04:43.154Z,3.20
2018-09-17T14:07:11.410Z,5.80
2018-09-17T14:09:39.710Z,2.57
2018-09-17T14:12:08.023Z,2.83
2018-09-17T14:14:36.292Z,4.07
2018-09-17T14:17:04.767Z,3.20
2018-09-17T14:19:33.168Z,2.77
2018-09-17T14:22:01.404Z,3.53
2018-09-17T14:24:29.677Z,3.87
2018-09-17T14:26:57.940Z,3.80
2018-09-17T14:29:26.162Z,4.50
2018-09-17T14:31:59.776Z,3.83
2018-09-17T14:34:28.089Z,4.03
2018-09-17T14:36:56.330Z,6.13
2018-09-17T14:39:24.539Z,3.27
2018-09-17T14:41:52.763Z,4.17
2018-09-17T14:44:21.064Z,5.60
2018-09-17T14:46:49.381Z,5.70
2018-09-17T14:49:17.614Z,5.03
2018-09-17T14:51:46.163Z,4.93
2018-09-17T14:54:14.512Z,3.77
2018-09-17T14:56:42.714Z,4.47
2018-09-17T14:59:11.063Z,3.90
2018-09-17T15:01:39.450Z,4.97
2018-09-17T15:04:07.720Z,7.47
2018-09-17T15:06:36.059Z,5.37
2018-09-17T15:09:07.063Z,5.37
2018-09-17T15:11:35.332Z,5.00
2018-09-17T15:14:03.645Z,4.43
2018-09-17T15:16:31.827Z,3.90
2018-09-17T15:19:00.807Z,6.40
2018-09-17T15:21:29.129Z,5.60
2018-09-17T15:23:57.537Z,5.60
2018-09-17T15:26:25.657Z,4.93
2018-09-17T15:28:53.909Z,4.20
2018-09-17T15:31:22.307Z,4.53
2018-09-17T15:33:50.525Z,7.53
2018-09-17T15:36:18.922Z,7.53
2018-09-17T15:38:47.233Z,5.10
2018-09-17T15:41:15.650Z,5.23
2018-09-17T15:43:43.909Z,8.13
2018-09-17T15:46:12.238Z,8.10
2018-09-17T15:48:40.427Z,5.87
2018-09-17T15:51:08.674Z,5.13
2018-09-17T15:53:36.908Z,4.60
2018-09-17T15:56:05.815Z,5.13
2018-09-17T15:58:34.046Z,5.70
2018-09-17T16:01:02.329Z,4.27
2018-09-17T16:03:30.627Z,6.80
2018-09-17T16:05:58.897Z,4.83
2018-09-17T16:08:27.126Z,4.20
2018-09-17T16:10:55.358Z,4.40
2018-09-17T16:13:23.611Z,4.17
2018-09-17T16:15:51.903Z,14.30
2018-09-17T16:18:20.234Z,5.27
2018-09-17T16:20:49.068Z,3.57
2018-09-17T16:23:17.294Z,3.40
2018-09-17T16:25:45.803Z,3.67
2018-09-17T16:28:14.095Z,3.73
2018-09-17T16:30:42.519Z,4.63
2018-09-17T16:33:10.762Z,4.40
2018-09-17T16:35:38.954Z,4.53
2018-09-17T16:38:07.201Z,4.73
2018-09-17T16:40:35.516Z,3.53
2018-09-17T16:43:03.790Z,3.13
2018-09-17T16:45:32.056Z,5.57
2018-09-17T16:48:00.466Z,3.00
2018-09-17T16:50:28.673Z,4.10
2018-09-17T16:52:57.005Z,4.47
2018-09-17T16:55:25.158Z,4.63
2018-09-17T16:57:53.726Z,3.97
2018-09-17T17:00:23.067Z,4.40
2018-09-17T17:02:51.354Z,2.63
2018-09-17T17:05:19.739Z,5.13
2018-09-17T17:07:47.910Z,3.83
2018-09-17T17:10:16.328Z,4.80
2018-09-17T17:12:44.498Z,3.30
2018-09-17T17:15:12.707Z,4.67
2018-09-17T17:17:41.014Z,3.50
2018-09-17T17:20:09.229Z,7.07
2018-09-17T17:22:37.567Z,6.60
2018-09-17T17:25:05.819Z,6.00
2018-09-17T17:27:34.093Z,5.90
2018-09-17T17:30:02.400Z,8.80
2018-09-17T17:32:30.691Z,4.30
2018-09-17T17:34:58.910Z,5.40
2018-09-17T17:37:27.117Z,9.83
2018-09-17T17:39:57.062Z,11.20
2018-09-17T17:42:25.226Z,4.37
2018-09-17T17:44:53.912Z,5.60
2018-09-17T17:47:22.220Z,7.17
2018-09-17T17:49:50.491Z,4.70
2018-09-17T17:52:18.741Z,5.03
2018-09-17T17:54:46.938Z,7.23
2018-09-17T17:57:15.229Z,7.47
2018-09-17T17:59:43.529Z,5.97
2018-09-17T18:02:11.899Z,6.23
2018-09-17T18:04:40.143Z,6.33
2018-09-17T18:07:08.430Z,5.77
2018-09-17T18:09:36.730Z,5.80
2018-09-17T18:12:05.074Z,5.13
2018-09-17T18:14:33.385Z,6.90
2018-09-17T18:17:02.146Z,7.33
2018-09-17T18:19:30.386Z,7.07
2018-09-17T18:21:58.695Z,8.63
2018-09-17T18:24:26.971Z,7.00
2018-09-17T18:26:55.240Z,7.20
2018-09-17T18:29:23.596Z,6.70
2018-09-17T18:31:51.823Z,6.70
2018-09-17T18:34:20.054Z,6.53
2018-09-17T18:36:48.396Z,8.80
2018-09-17T18:39:16.714Z,7.77
2018-09-17T18:41:44.990Z,9.03
2018-09-17T18:44:13.218Z,9.63
2018-09-17T18:46:41.488Z,8.30
2018-09-17T18:49:09.773Z,8.80
2018-09-17T18:51:38.176Z,13.10
2018-09-17T18:54:06.540Z,11.13
2018-09-17T18:56:34.822Z,12.33
2018-09-17T18:59:03.107Z,11.27
2018-09-17T19:01:31.358Z,11.43
2018-09-17T19:03:59.716Z,8.10
2018-09-17T19:06:28.083Z,9.33
2018-09-17T19:08:56.386Z,11.80
2018-09-17T19:11:24.674Z,8.97
2018-09-17T19:13:58.357Z,11.17
2018-09-17T19:16:32.026Z,9.43
2018-09-17T19:19:00.276Z,10.13
2018-09-17T19:21:34.128Z,14.10
2018-09-17T19:24:04.936Z,12.10
2018-09-17T19:26:33.236Z,11.37
2018-09-17T19:29:07.066Z,10.87
2018-09-17T19:31:35.286Z,9.70
2018-09-17T19:34:03.628Z,9.73
2018-09-17T19:36:31.894Z,10.33
2018-09-17T19:39:05.606Z,9.13
2018-09-17T19:41:33.932Z,13.13
2018-09-17T19:44:02.200Z,9.57
2018-09-17T19:46:30.446Z,10.20
2018-09-17T19:48:58.826Z,9.90
2018-09-17T19:51:32.470Z,9.00
2018-09-17T19:54:00.871Z,9.90
2018-09-17T19:56:29.090Z,9.63
2018-09-17T19:59:02.609Z,12.80
2018-09-17T20:01:31.694Z,8.33
2018-09-17T20:04:04.176Z,11.57
2018-09-17T20:06:32.572Z,11.73
2018-09-17T20:09:00.790Z,13.93
2018-09-17T20:11:29.171Z,9.20
2018-09-17T20:13:57.485Z,12.17
2018-09-17T20:16:25.796Z,10.30
2018-09-17T20:18:54.133Z,9.37
2018-09-17T20:21:22.691Z,9.70
2018-09-17T20:23:51.842Z,9.30
2018-09-17T20:26:20.124Z,9.40
2018-09-17T20:28:48.414Z,10.00
2018-09-17T20:31:16.739Z,10.90
2018-09-17T20:33:44.926Z,10.43
2018-09-17T20:36:13.209Z,10.37
2018-09-17T20:38:41.687Z,11.03
2018-09-17T20:41:09.873Z,11.53
2018-09-17T20:43:38.486Z,9.90
2018-09-17T20:46:06.782Z,9.97
2018-09-17T20:48:35.005Z,9.73
2018-09-17T20:51:03.303Z,10.27
2018-09-17T20:53:31.582Z,9.50
2018-09-17T20:55:59.800Z,10.20
2018-09-17T20:58:28.214Z,11.90
2018-09-17T21:00:56.596Z,9.87
2018-09-17T21:03:24.914Z,8.87
2018-09-17T21:05:53.154Z,10.30
2018-09-17T21:08:21.442Z,9.53
2018-09-17T21:10:49.715Z,9.23
2018-09-17T21:13:18.023Z,11.03
2018-09-17T21:15:46.485Z,8.80
2018-09-17T21:18:14.767Z,10.10
2018-09-17T21:20:43.045Z,9.90
2018-09-17T21:23:11.254Z,9.70
2018-09-17T21:25:39.474Z,9.67
2018-09-17T21:28:07.826Z,10.83
2018-09-17T21:30:36.133Z,10.00
2018-09-17T21:33:04.396Z,10.00
2018-09-17T21:35:32.630Z,9.80
2018-09-17T21:38:00.886Z,10.67
2018-09-17T21:40:29.152Z,12.70
2018-09-17T21:42:57.415Z,10.27
2018-09-17T21:45:25.683Z,10.50
2018-09-17T21:47:53.987Z,10.70
2018-09-17T21:50:22.229Z,11.43
2018-09-17T21:52:50.505Z,10.53
2018-09-17T21:55:18.786Z,10.13
2018-09-17T21:57:47.061Z,12.57
2018-09-17T22:00:15.329Z,13.37
2018-09-17T22:02:43.586Z,10.67
2018-09-17T22:05:11.798Z,15.13
2018-09-17T22:07:40.060Z,11.33
2018-09-17T22:10:08.301Z,13.67
2018-09-17T22:12:36.541Z,12.20
2018-09-17T22:15:04.786Z,11.13
2018-09-17T22:17:33.010Z,12.23
2018-09-17T22:20:01.381Z,11.10
2018-09-17T22:22:29.605Z,13.03
2018-09-17T22:24:57.869Z,11.03
2018-09-17T22:27:26.167Z,11.87
2018-09-17T22:29:55.186Z,11.13
2018-09-17T22:32:23.480Z,10.60
2018-09-17T22:34:51.683Z,10.53
2018-09-17T22:37:20.005Z,10.73
2018-09-17T22:39:48.463Z,11.60
2018-09-17T22:42:16.848Z,10.97
2018-09-17T22:44:45.127Z,17.63
2018-09-17T22:47:13.909Z,11.60
2018-09-17T22:49:42.613Z,11.73
2018-09-17T22:52:11.273Z,11.70
2018-09-17T22:54:39.960Z,12.03
2018-09-17T22:57:08.257Z,12.10
2018-09-17T22:59:36.575Z,12.77
2018-09-17T23:02:04.898Z,12.70
2018-09-17T23:04:33.237Z,11.50
2018-09-17T23:07:01.682Z,11.77
2018-09-17T23:09:29.925Z,13.70
2018-09-17T23:11:58.217Z,10.67
2018-09-17T23:14:26.641Z,11.30
2018-09-17T23:16:54.857Z,11.50
2018-09-17T23:19:23.521Z,11.47
2018-09-17T23:21:51.866Z,12.00
2018-09-17T23:24:20.195Z,12.70
2018-09-17T23:26:48.556Z,11.17
2018-09-17T23:29:16.774Z,11.53
2018-09-17T23:31:44.994Z,11.53
2018-09-17T23:34:13.210Z,10.97
2018-09-17T23:36:41.550Z,11.60
2018-09-17T23:39:11.113Z,11.27
2018-09-17T23:41:39.735Z,11.90
2018-09-17T23:44:08.111Z,10.33
2018-09-17T23:46:36.797Z,11.87
2018-09-17T23:49:05.138Z,11.33
2018-09-17T23:51:33.434Z,10.03
2018-09-17T23:54:01.711Z,12.10
2018-09-17T23:56:30.134Z,11.43
2018-09-17T23:58:58.433Z,11.63
